Time;durP1;ratioP1;P1;durP2;ratioP2;P2;SDS_P1;SDS_P2;PMS_P1;PMS_P2;Temp;Humidity;BMP_temperature;BMP_pressure;BME280_temperature;BME280_humidity;BME280_pressure;Samples;Min_cycle;Max_cycle;Signal;HPM_P1;HPM_P2
2023/08/15 00:01:57;;;;;;;7.33;6.40;;;21.40;99.90;;;;;;5036141;28;20811;-70
2023/08/15 00:04:25;;;;;;;6.97;6.40;;;21.30;99.90;;;;;;5037484;28;20899;-70
2023/08/15 00:06:53;;;;;;;8.90;6.83;;;21.30;99.90;;;;;;5037112;28;20478;-70
2023/08/15 00:09:21;;;;;;;8.13;6.13;;;21.30;99.90;;;;;;5037501;28;20537;-70
2023/08/15 00:11:49;;;;;;;7.77;6.40;;;21.30;99.90;;;;;;5036920;28;20852;-70
2023/08/15 00:14:18;;;;;;;6.57;5.97;;;21.30;99.90;;;;;;5035740;28;20541;-70
2023/08/15 00:16:47;;;;;;;8.43;7.10;;;21.30;99.90;;;;;;5035962;28;20983;-70
2023/08/15 00:19:15;;;;;;;7.93;6.47;;;21.30;99.90;;;;;;5036836;28;20485;-70
2023/08/15 00:21:43;;;;;;;8.97;6.83;;;21.30;99.90;;;;;;5040116;28;20821;-71
2023/08/15 00:24:12;;;;;;;8.13;6.83;;;21.20;99.90;;;;;;5039581;28;20805;-70
2023/08/15 00:26:40;;;;;;;10.50;7.20;;;21.20;99.90;;;;;;5037973;28;20434;-70
2023/08/15 00:29:08;;;;;;;8.00;6.67;;;21.20;99.90;;;;;;5035944;28;20542;-70
2023/08/15 00:31:37;;;;;;;8.37;6.30;;;21.20;99.90;;;;;;5035688;28;20467;-70
2023/08/15 00:34:06;;;;;;;6.90;6.20;;;21.20;99.90;;;;;;5035492;28;20470;-70
2023/08/15 00:36:34;;;;;;;6.90;6.20;;;21.20;99.90;;;;;;5036718;28;20969;-70
2023/08/15 00:39:03;;;;;;;8.27;6.23;;;21.20;99.90;;;;;;5035353;28;20474;-70
2023/08/15 00:41:31;;;;;;;6.70;5.97;;;21.20;99.90;;;;;;5036981;28;20466;-70
2023/08/15 00:43:59;;;;;;;9.17;6.30;;;21.20;99.90;;;;;;5035265;28;20503;-70
2023/08/15 00:46:28;;;;;;;12.20;7.07;;;21.10;99.90;;;;;;5035207;28;20455;-70
2023/08/15 00:48:57;;;;;;;9.70;6.60;;;21.20;99.90;;;;;;5035225;28;20447;-70
2023/08/15 00:51:28;;;;;;;7.90;6.37;;;21.10;99.90;;;;;;5034907;28;20520;-70
2023/08/15 00:53:57;;;;;;;8.40;6.70;;;21.10;99.90;;;;;;5036488;28;20971;-70
2023/08/15 00:56:25;;;;;;;8.50;6.93;;;21.10;99.90;;;;;;5034873;28;20446;-70
2023/08/15 00:58:53;;;;;;;6.70;6.00;;;21.10;99.90;;;;;;5036136;28;20470;-70
2023/08/15 01:01:24;;;;;;;9.03;6.43;;;21.10;99.90;;;;;;5034764;28;20451;-70
2023/08/15 01:03:52;;;;;;;7.33;6.00;;;21.10;99.90;;;;;;5034729;28;20463;-70
2023/08/15 01:06:21;;;;;;;6.80;6.20;;;21.00;99.90;;;;;;5034580;28;20451;-70
2023/08/15 01:08:50;;;;;;;7.70;6.47;;;21.00;99.90;;;;;;5034662;28;20497;-70
2023/08/15 01:11:19;;;;;;;6.83;6.07;;;21.00;99.90;;;;;;5034049;28;20536;-70
2023/08/15 01:13:59;;;;;;;8.17;6.80;;;21.10;99.90;;;;;;5035781;28;20972;-70
2023/08/15 01:16:35;;;;;;;8.73;5.63;;;21.00;99.90;;;;;;5034555;28;20450;-70
2023/08/15 01:19:11;;;;;;;7.17;6.47;;;21.10;99.90;;;;;;5034542;28;20489;-70
2023/08/15 01:21:45;;;;;;;7.20;6.50;;;21.00;99.90;;;;;;5035866;28;20534;-70
2023/08/15 01:24:16;;;;;;;7.40;6.80;;;21.00;99.90;;;;;;5034950;28;20470;-70
2023/08/15 01:26:46;;;;;;;8.00;6.43;;;21.00;99.90;;;;;;5034428;28;20442;-70
2023/08/15 01:29:14;;;;;;;7.73;6.43;;;21.00;99.90;;;;;;5035988;28;20526;-71
2023/08/15 01:31:47;;;;;;;8.17;6.50;;;21.00;99.90;;;;;;5035458;28;20909;-71
2023/08/15 01:34:22;;;;;;;8.00;7.23;;;20.90;99.90;;;;;;5035630;28;20968;-71
2023/08/15 01:36:56;;;;;;;7.70;6.80;;;20.90;99.90;;;;;;5035421;28;20451;-71
2023/08/15 01:39:29;;;;;;;8.27;6.70;;;21.00;99.90;;;;;;5034015;28;20441;-71
2023/08/15 01:42:00;;;;;;;7.50;6.80;;;20.90;99.90;;;;;;5035756;28;20469;-70
2023/08/15 01:44:32;;;;;;;7.87;7.10;;;20.90;99.90;;;;;;5034238;28;20525;-70
2023/08/15 01:47:00;;;;;;;8.10;6.57;;;21.00;99.90;;;;;;5035701;28;20991;-71
2023/08/15 01:49:28;;;;;;;7.53;6.70;;;20.90;99.90;;;;;;5035028;28;20808;-71
2023/08/15 01:51:57;;;;;;;7.93;6.63;;;20.90;99.90;;;;;;5034980;28;20471;-71
2023/08/15 01:54:27;;;;;;;7.73;6.17;;;21.00;99.90;;;;;;5035717;28;20446;-70
2023/08/15 01:56:57;;;;;;;7.87;6.50;;;20.90;99.90;;;;;;5034975;28;20462;-70
2023/08/15 01:59:25;;;;;;;8.63;7.17;;;20.90;99.90;;;;;;5033763;28;20451;-70
2023/08/15 02:01:53;;;;;;;6.87;6.07;;;20.90;99.90;;;;;;5034937;28;20826;-71
2023/08/15 02:04:22;;;;;;;7.60;6.90;;;20.90;99.90;;;;;;5033790;28;20473;-71
2023/08/15 02:06:50;;;;;;;8.10;6.30;;;20.90;99.90;;;;;;5033599;28;20819;-71
2023/08/15 02:09:18;;;;;;;7.03;6.33;;;20.90;99.90;;;;;;5033540;28;20455;-71
2023/08/15 02:11:47;;;;;;;7.30;6.70;;;20.90;99.90;;;;;;5033215;28;20825;-71
2023/08/15 02:14:16;;;;;;;7.57;6.87;;;20.80;99.90;;;;;;5034524;28;20497;-71
2023/08/15 02:16:44;;;;;;;7.90;7.20;;;20.80;99.90;;;;;;5035061;28;20446;-71
2023/08/15 02:19:12;;;;;;;7.10;6.50;;;20.80;99.90;;;;;;5033252;28;20526;-71
2023/08/15 02:21:40;;;;;;;7.97;7.00;;;20.80;99.90;;;;;;5032464;28;20529;-70
2023/08/15 02:24:08;;;;;;;8.07;7.27;;;20.80;99.90;;;;;;5034439;28;20451;-71
2023/08/15 02:26:36;;;;;;;6.43;5.80;;;20.80;99.90;;;;;;5034737;28;20489;-70
2023/08/15 02:29:06;;;;;;;7.57;6.87;;;20.80;99.90;;;;;;5033061;28;20527;-70
2023/08/15 02:31:34;;;;;;;8.27;7.40;;;20.80;99.90;;;;;;5034158;28;20544;-71
2023/08/15 02:34:04;;;;;;;7.80;6.80;;;20.70;99.90;;;;;;5032959;28;20463;-70
2023/08/15 02:36:32;;;;;;;7.00;6.33;;;20.70;99.90;;;;;;5034395;28;20478;-71
2023/08/15 02:39:00;;;;;;;8.07;7.27;;;20.70;99.90;;;;;;5034624;28;20459;-71
2023/08/15 02:41:28;;;;;;;7.50;6.80;;;20.70;99.90;;;;;;5032891;28;20435;-68
2023/08/15 02:43:56;;;;;;;8.50;7.70;;;20.70;99.90;;;;;;5033316;28;20474;-68
2023/08/15 02:46:28;;;;;;;9.13;7.30;;;20.70;99.90;;;;;;5034043;28;20526;-71
2023/08/15 02:48:56;;;;;;;7.27;6.67;;;20.70;99.90;;;;;;5034323;28;20519;-70
2023/08/15 02:51:24;;;;;;;7.37;6.70;;;20.70;99.90;;;;;;5034236;28;20572;-71
2023/08/15 02:53:52;;;;;;;8.03;7.23;;;20.70;99.90;;;;;;5032751;28;20844;-71
2023/08/15 02:56:21;;;;;;;7.90;7.10;;;20.60;99.90;;;;;;5032516;28;20450;-71
2023/08/15 02:58:49;;;;;;;7.87;7.07;;;20.60;99.90;;;;;;5033861;28;20799;-71
2023/08/15 03:01:17;;;;;;;7.77;6.97;;;20.60;99.90;;;;;;5033987;28;20526;-70
2023/08/15 03:03:46;;;;;;;8.10;7.40;;;20.60;99.90;;;;;;5033575;28;20451;-71
2023/08/15 03:06:15;;;;;;;9.33;8.27;;;20.60;99.90;;;;;;5032452;28;20489;-70
2023/08/15 03:08:43;;;;;;;8.03;7.23;;;20.60;99.90;;;;;;5032581;28;20450;-71
2023/08/15 03:11:11;;;;;;;7.80;7.00;;;20.60;99.90;;;;;;5032060;28;20454;-71
2023/08/15 03:13:39;;;;;;;11.57;8.50;;;20.60;99.90;;;;;;5032321;28;20501;-70
2023/08/15 03:16:07;;;;;;;8.00;7.27;;;20.60;99.90;;;;;;5032494;28;20451;-71
2023/08/15 03:18:36;;;;;;;8.63;7.83;;;20.60;99.90;;;;;;5036688;28;20795;-71
2023/08/15 03:21:08;;;;;;;9.10;8.30;;;20.60;99.90;;;;;;5037629;28;20461;-70
2023/08/15 03:23:37;;;;;;;7.63;7.03;;;20.60;99.90;;;;;;5033177;28;20466;-70
2023/08/15 03:26:06;;;;;;;9.00;8.10;;;20.60;99.90;;;;;;5034070;28;20438;-70
2023/08/15 03:28:37;;;;;;;8.00;7.30;;;20.60;99.90;;;;;;5032394;28;20522;-70
2023/08/15 03:31:08;;;;;;;8.93;8.10;;;20.60;99.90;;;;;;5032322;28;20458;-71
2023/08/15 03:33:42;;;;;;;9.63;7.83;;;20.60;99.90;;;;;;5031933;28;20561;-71
2023/08/15 03:36:12;;;;;;;9.50;8.70;;;20.60;99.90;;;;;;5032446;28;20451;-71
2023/08/15 03:38:41;;;;;;;8.70;7.90;;;20.60;99.90;;;;;;5032167;28;20451;-71
2023/08/15 03:41:09;;;;;;;8.17;7.37;;;20.60;99.90;;;;;;5032152;28;20940;-70
2023/08/15 03:43:38;;;;;;;9.37;8.37;;;20.60;99.90;;;;;;5032111;28;20489;-71
2023/08/15 03:46:06;;;;;;;12.03;9.83;;;20.60;99.90;;;;;;5033287;28;20497;-71
2023/08/15 03:48:36;;;;;;;9.77;8.97;;;20.60;99.90;;;;;;5031901;28;20972;-70
2023/08/15 03:51:04;;;;;;;9.40;8.50;;;20.70;99.90;;;;;;5031921;28;20974;-70
2023/08/15 03:53:34;;;;;;;10.30;9.40;;;20.70;99.90;;;;;;5033863;28;20491;-70
2023/08/15 03:56:04;;;;;;;9.90;9.00;;;20.70;99.90;;;;;;5031991;28;20493;-71
2023/08/15 03:58:33;;;;;;;11.63;10.40;;;20.70;99.90;;;;;;5031914;28;20443;-70
2023/08/15 04:01:02;;;;;;;10.93;9.90;;;20.70;99.90;;;;;;5031848;28;20550;-71
2023/08/15 04:03:31;;;;;;;10.20;9.40;;;20.70;99.90;;;;;;5031788;28;21039;-70
2023/08/15 04:05:59;;;;;;;8.90;8.20;;;20.70;99.90;;;;;;5031745;28;20470;-70
2023/08/15 04:08:27;;;;;;;10.20;9.03;;;20.70;99.90;;;;;;5033003;28;20443;-70
2023/08/15 04:10:56;;;;;;;11.37;10.37;;;20.70;99.90;;;;;;5032890;28;20849;-71
2023/08/15 04:13:25;;;;;;;11.80;10.73;;;20.70;99.90;;;;;;5033308;28;20502;-70
2023/08/15 04:15:53;;;;;;;13.33;12.23;;;20.70;99.90;;;;;;5031696;28;20451;-70
2023/08/15 04:18:22;;;;;;;13.77;12.37;;;20.70;99.90;;;;;;5031599;28;20863;-71
2023/08/15 04:20:50;;;;;;;11.83;10.73;;;20.70;99.90;;;;;;5031711;28;20447;-71
2023/08/15 04:23:18;;;;;;;11.97;10.60;;;20.70;99.90;;;;;;5031592;28;20991;-70
2023/08/15 04:25:46;;;;;;;10.93;9.60;;;20.70;99.90;;;;;;5031633;28;20443;-71
2023/08/15 04:28:16;;;;;;;10.80;9.80;;;20.70;99.90;;;;;;5031552;28;20533;-71
2023/08/15 04:30:44;;;;;;;10.33;9.43;;;20.70;99.90;;;;;;5031506;28;20454;-70
2023/08/15 04:33:13;;;;;;;11.20;10.30;;;20.70;99.90;;;;;;5032972;28;20498;-70
2023/08/15 04:35:41;;;;;;;10.87;9.77;;;20.70;99.90;;;;;;5031716;28;20450;-70
2023/08/15 04:38:10;;;;;;;13.30;10.13;;;20.70;99.90;;;;;;5032793;28;20493;-70
2023/08/15 04:40:40;;;;;;;14.37;13.03;;;20.70;99.90;;;;;;5031519;28;20538;-70
2023/08/15 04:43:10;;;;;;;13.83;12.43;;;20.70;99.90;;;;;;5032325;28;20536;-71
2023/08/15 04:45:43;;;;;;;11.77;10.53;;;20.70;99.90;;;;;;5033908;28;20443;-71
2023/08/15 04:48:12;;;;;;;12.40;11.10;;;20.70;99.90;;;;;;5034944;28;20947;-71
2023/08/15 04:50:41;;;;;;;11.63;10.60;;;20.70;99.90;;;;;;5034873;28;20944;-70
2023/08/15 04:53:09;;;;;;;11.93;10.77;;;20.70;99.90;;;;;;5034859;28;20482;-71
2023/08/15 04:55:37;;;;;;;11.60;10.70;;;20.70;99.90;;;;;;5034823;28;20512;-71
2023/08/15 04:58:09;;;;;;;13.27;12.07;;;20.70;99.90;;;;;;5034764;28;20540;-71
2023/08/15 05:00:39;;;;;;;14.00;11.43;;;20.70;99.90;;;;;;5034744;28;21004;-70
2023/08/15 05:03:07;;;;;;;13.40;12.23;;;20.70;99.90;;;;;;5034668;28;20493;-70
2023/08/15 05:05:35;;;;;;;14.47;13.07;;;20.80;99.90;;;;;;5034703;28;20504;-71
2023/08/15 05:08:06;;;;;;;15.00;13.33;;;20.80;99.90;;;;;;5034690;28;20892;-70
2023/08/15 05:10:34;;;;;;;14.17;13.00;;;20.80;99.90;;;;;;5034623;28;20533;-71
2023/08/15 05:13:03;;;;;;;13.60;12.30;;;20.80;99.90;;;;;;5034625;28;20533;-71
2023/08/15 05:15:31;;;;;;;14.67;13.17;;;20.80;99.90;;;;;;5034490;28;20482;-71
2023/08/15 05:18:01;;;;;;;14.57;13.27;;;20.80;99.90;;;;;;5034487;28;20455;-71
2023/08/15 05:20:32;;;;;;;14.70;13.50;;;20.80;99.90;;;;;;5034586;28;20474;-71
2023/08/15 05:23:00;;;;;;;13.00;11.87;;;20.90;99.90;;;;;;5034645;28;21019;-71
2023/08/15 05:25:29;;;;;;;13.20;12.10;;;20.90;99.90;;;;;;5034585;28;20493;-70
2023/08/15 05:28:04;;;;;;;12.50;11.40;;;20.90;99.90;;;;;;5034429;28;20475;-71
2023/08/15 05:30:32;;;;;;;13.40;12.30;;;20.90;99.90;;;;;;5034315;28;20437;-71
2023/08/15 05:33:03;;;;;;;11.30;10.50;;;20.90;99.90;;;;;;5034127;28;20511;-70
2023/08/15 05:35:31;;;;;;;15.20;13.90;;;20.90;99.90;;;;;;5035638;28;20427;-71
2023/08/15 05:37:59;;;;;;;14.53;13.23;;;21.00;99.90;;;;;;5034166;28;20534;-70
2023/08/15 05:40:29;;;;;;;13.90;12.63;;;21.00;99.90;;;;;;5035923;28;20789;-70
2023/08/15 05:42:58;;;;;;;15.17;13.60;;;21.00;99.90;;;;;;5035674;28;20487;-71
2023/08/15 05:45:26;;;;;;;12.73;11.70;;;21.00;99.90;;;;;;5035512;28;20441;-70
2023/08/15 05:47:54;;;;;;;13.70;12.50;;;21.00;99.90;;;;;;5035225;28;21035;-70
2023/08/15 05:50:24;;;;;;;13.00;11.77;;;21.00;99.90;;;;;;5035445;28;20442;-71
2023/08/15 05:52:52;;;;;;;13.53;12.33;;;21.00;99.90;;;;;;5035611;28;20466;-70
2023/08/15 05:55:20;;;;;;;14.90;13.70;;;21.10;99.90;;;;;;5035694;28;20486;-70
2023/08/15 05:57:48;;;;;;;12.07;10.97;;;21.10;99.90;;;;;;5034325;28;20933;-71
2023/08/15 06:00:18;;;;;;;12.90;11.70;;;21.10;99.90;;;;;;5042397;22;20497;-71
2023/08/15 06:02:46;;;;;;;13.53;12.23;;;21.10;99.90;;;;;;5035174;28;20430;-71
2023/08/15 06:05:14;;;;;;;13.53;12.13;;;21.10;99.90;;;;;;5017689;28;20518;-71
2023/08/15 06:07:44;;;;;;;14.93;13.53;;;21.10;99.90;;;;;;5034855;28;20439;-70
2023/08/15 06:10:13;;;;;;;14.93;13.63;;;21.20;99.90;;;;;;5034866;28;20493;-70
2023/08/15 06:12:42;;;;;;;13.97;12.57;;;21.20;99.90;;;;;;5034833;28;20830;-70
2023/08/15 06:15:10;;;;;;;13.03;11.73;;;21.20;99.90;;;;;;5017230;28;21038;-70
2023/08/15 06:17:38;;;;;;;12.87;11.67;;;21.20;99.90;;;;;;5034672;28;20932;-71
2023/08/15 06:20:08;;;;;;;15.10;12.60;;;21.20;99.90;;;;;;5035006;28;20446;-71
2023/08/15 06:22:36;;;;;;;13.97;12.30;;;21.20;99.90;;;;;;5034897;28;20446;-71
2023/08/15 06:25:07;;;;;;;11.90;10.80;;;21.20;99.90;;;;;;5034965;28;20455;-70
2023/08/15 06:27:35;;;;;;;12.93;11.63;;;21.20;99.90;;;;;;5035094;28;20519;-70
2023/08/15 06:30:03;;;;;;;13.97;12.40;;;21.30;99.90;;;;;;5017100;28;20521;-70
2023/08/15 06:32:33;;;;;;;12.40;11.50;;;21.30;99.90;;;;;;5034508;28;20927;-71
2023/08/15 06:35:03;;;;;;;12.87;11.77;;;21.30;99.90;;;;;;5034511;28;20994;-70
2023/08/15 06:37:31;;;;;;;13.20;11.80;;;21.30;99.90;;;;;;5016988;28;20431;-71
2023/08/15 06:39:59;;;;;;;13.07;12.03;;;21.30;99.90;;;;;;5034535;28;20474;-71
2023/08/15 06:42:29;;;;;;;13.43;12.10;;;21.30;99.90;;;;;;5016894;28;20454;-70
2023/08/15 06:45:08;;;;;;;12.43;11.23;;;21.30;99.90;;;;;;5016640;28;20506;-70
2023/08/15 06:47:37;;;;;;;12.50;11.40;;;21.30;99.90;;;;;;5016554;28;20913;-71
2023/08/15 06:50:08;;;;;;;12.50;11.27;;;21.30;99.90;;;;;;5034088;28;20954;-71
2023/08/15 06:52:36;;;;;;;12.97;11.87;;;21.30;99.90;;;;;;5034480;28;20423;-70
2023/08/15 06:55:06;;;;;;;11.63;10.63;;;21.40;99.90;;;;;;5033841;28;20494;-71
2023/08/15 06:57:36;;;;;;;12.57;11.57;;;21.40;99.90;;;;;;5016285;28;20984;-69
2023/08/15 07:00:11;;;;;;;11.83;10.93;;;21.40;99.90;;;;;;5016715;28;20628;-69
2023/08/15 07:02:41;;;;;;;12.30;11.20;;;21.40;99.90;;;;;;5034425;28;20427;-69
2023/08/15 07:05:10;;;;;;;15.37;10.70;;;21.50;99.90;;;;;;5033959;28;20435;-69
2023/08/15 07:07:38;;;;;;;13.67;11.10;;;21.50;99.90;;;;;;5033629;28;20470;-69
2023/08/15 07:10:07;;;;;;;11.73;10.73;;;21.50;99.90;;;;;;5033857;28;20474;-69
2023/08/15 07:12:37;;;;;;;13.03;11.93;;;21.50;99.90;;;;;;5033769;28;20463;-69
2023/08/15 07:15:06;;;;;;;12.10;11.00;;;21.50;99.90;;;;;;5033606;28;20902;-68
2023/08/15 07:17:34;;;;;;;14.67;12.70;;;21.50;99.90;;;;;;5034135;28;20489;-69
2023/08/15 07:20:04;;;;;;;11.27;10.27;;;21.50;99.90;;;;;;5033798;28;20439;-69
2023/08/15 07:22:34;;;;;;;11.33;10.33;;;21.60;99.90;;;;;;5033385;28;20451;-69
2023/08/15 07:25:02;;;;;;;12.63;11.43;;;21.60;99.90;;;;;;5033483;28;20458;-69
2023/08/15 07:27:31;;;;;;;12.23;11.10;;;21.60;99.90;;;;;;5016313;28;20474;-70
2023/08/15 07:30:00;;;;;;;11.13;10.13;;;21.60;99.90;;;;;;5034186;28;20443;-68
2023/08/15 07:32:29;;;;;;;13.23;11.93;;;21.70;99.90;;;;;;5033857;28;20447;-69
2023/08/15 07:34:57;;;;;;;11.50;10.50;;;21.70;99.90;;;;;;5033752;28;20471;-69
2023/08/15 07:37:25;;;;;;;11.80;10.80;;;21.70;99.90;;;;;;5033465;28;20777;-69
2023/08/15 07:39:58;;;;;;;14.70;11.30;;;21.80;99.90;;;;;;5033903;28;20442;-69
2023/08/15 07:42:27;;;;;;;11.23;10.17;;;21.80;99.90;;;;;;5034611;28;20699;-68
2023/08/15 07:44:55;;;;;;;12.43;11.33;;;21.80;99.90;;;;;;5033687;28;20972;-68
2023/08/15 07:47:25;;;;;;;11.00;10.20;;;21.90;99.90;;;;;;5015544;28;20442;-69
2023/08/15 07:50:13;;;;;;;11.13;10.03;;;21.90;99.90;;;;;;5033543;28;21007;-68
2023/08/15 07:52:41;;;;;;;11.40;10.33;;;21.90;99.90;;;;;;5033840;28;20815;-68
2023/08/15 07:55:10;;;;;;;15.37;12.70;;;22.00;99.90;;;;;;5016070;28;20498;-68
2023/08/15 07:57:38;;;;;;;13.40;12.07;;;22.00;99.90;;;;;;5033473;28;20801;-69
2023/08/15 08:00:09;;;;;;;11.97;10.97;;;22.10;99.90;;;;;;5015891;28;20443;-69
2023/08/15 08:02:43;;;;;;;12.80;10.90;;;22.20;99.90;;;;;;5033455;28;20501;-68
2023/08/15 08:05:14;;;;;;;11.90;10.90;;;22.20;99.90;;;;;;5033492;28;20419;-68
2023/08/15 08:07:44;;;;;;;10.80;9.70;;;22.30;99.90;;;;;;5033436;28;20503;-69
2023/08/15 08:10:12;;;;;;;10.90;10.00;;;22.50;99.90;;;;;;5033334;28;20431;-69
2023/08/15 08:12:40;;;;;;;11.57;10.57;;;22.60;99.90;;;;;;5015671;28;20474;-68
2023/08/15 08:15:09;;;;;;;10.83;10.03;;;22.70;99.90;;;;;;5015383;28;20850;-69
2023/08/15 08:17:38;;;;;;;11.63;10.63;;;22.80;99.90;;;;;;5016020;28;20442;-69
2023/08/15 08:20:11;;;;;;;13.37;12.07;;;22.90;99.90;;;;;;5034802;28;20439;-69
2023/08/15 08:22:40;;;;;;;13.50;12.30;;;23.00;99.90;;;;;;5019393;28;20470;-69
2023/08/15 08:25:14;;;;;;;13.53;12.53;;;23.10;99.90;;;;;;5037105;28;20438;-68
2023/08/15 08:27:42;;;;;;;14.60;13.40;;;23.10;99.90;;;;;;5019255;28;20438;-69
2023/08/15 08:30:12;;;;;;;19.43;17.73;;;23.10;99.90;;;;;;5019546;28;20986;-69
2023/08/15 08:32:40;;;;;;;21.70;19.90;;;23.20;99.90;;;;;;5037929;28;20998;-69
2023/08/15 08:35:11;;;;;;;22.40;20.60;;;23.20;99.90;;;;;;5036877;28;20463;-69
2023/08/15 08:37:39;;;;;;;22.90;20.97;;;23.20;99.90;;;;;;5019457;28;20442;-69
2023/08/15 08:40:09;;;;;;;25.67;23.17;;;23.20;99.90;;;;;;5036991;28;20435;-69
2023/08/15 08:42:37;;;;;;;24.30;22.30;;;23.20;99.90;;;;;;5036930;28;20928;-69
2023/08/15 08:45:09;;;;;;;24.40;22.60;;;23.20;99.90;;;;;;5019308;28;20463;-70
2023/08/15 08:47:39;;;;;;;24.47;22.57;;;23.20;99.90;;;;;;5037009;28;20485;-70
2023/08/15 08:50:10;;;;;;;29.13;26.73;;;23.20;99.90;;;;;;5036570;28;20466;-69
2023/08/15 08:52:48;;;;;;;26.80;24.50;;;23.20;99.90;;;;;;5036565;28;20805;-70
2023/08/15 08:55:18;;;;;;;27.30;25.20;;;23.20;99.90;;;;;;5018709;28;20469;-69
2023/08/15 08:57:50;;;;;;;30.03;27.80;;;23.30;99.90;;;;;;5036477;28;20489;-70
2023/08/15 09:00:22;;;;;;;27.07;25.07;;;23.20;99.90;;;;;;5037208;28;20488;-70
2023/08/15 09:02:52;;;;;;;27.87;25.77;;;23.30;99.90;;;;;;5018826;28;20948;-69
2023/08/15 09:05:22;;;;;;;27.13;24.93;;;23.30;99.90;;;;;;5036888;28;20481;-69
2023/08/15 09:07:51;;;;;;;24.43;22.40;;;23.30;99.90;;;;;;5036932;28;20439;-69
2023/08/15 09:10:21;;;;;;;25.87;23.97;;;23.30;99.90;;;;;;5036707;28;20458;-69
2023/08/15 09:12:50;;;;;;;24.53;22.73;;;23.30;99.90;;;;;;5036217;28;20850;-69
2023/08/15 09:15:18;;;;;;;24.73;22.77;;;23.30;99.90;;;;;;5037289;28;20553;-70
2023/08/15 09:17:47;;;;;;;26.23;23.77;;;23.30;99.90;;;;;;5037109;28;20435;-70
2023/08/15 09:20:16;;;;;;;23.33;21.53;;;23.40;99.90;;;;;;5037290;28;20439;-70
2023/08/15 09:22:47;;;;;;;23.90;22.20;;;23.40;99.90;;;;;;5037473;28;20776;-70
2023/08/15 09:25:17;;;;;;;24.87;22.80;;;23.50;99.90;;;;;;5036812;28;20878;-70
2023/08/15 09:27:46;;;;;;;25.30;23.17;;;23.60;99.90;;;;;;5037766;28;20451;-70
2023/08/15 09:30:16;;;;;;;24.27;22.33;;;23.70;99.90;;;;;;5036790;28;20529;-70
2023/08/15 09:32:46;;;;;;;23.03;21.23;;;23.80;99.90;;;;;;5036805;28;20427;-70
2023/08/15 09:35:17;;;;;;;20.17;18.53;;;23.80;99.90;;;;;;5019548;28;20617;-70
2023/08/15 09:37:48;;;;;;;21.10;19.20;;;23.90;99.90;;;;;;5036630;28;20462;-70
2023/08/15 09:40:18;;;;;;;19.50;17.50;;;24.00;99.90;;;;;;5019018;28;20474;-69
2023/08/15 09:42:46;;;;;;;17.83;16.27;;;24.10;99.90;;;;;;5018404;28;20451;-70
2023/08/15 09:45:15;;;;;;;16.53;14.70;;;24.10;99.90;;;;;;5036070;28;20933;-70
2023/08/15 09:47:44;;;;;;;14.77;13.40;;;24.20;99.90;;;;;;5036228;28;20458;-69
2023/08/15 09:50:13;;;;;;;16.30;14.70;;;24.20;99.90;;;;;;5035929;28;20804;-70
2023/08/15 09:52:43;;;;;;;12.17;11.17;;;24.30;99.90;;;;;;5036340;28;20441;-70
2023/08/15 09:55:15;;;;;;;15.23;13.70;;;24.30;99.90;;;;;;5035951;28;20459;-70
2023/08/15 09:57:44;;;;;;;15.60;13.97;;;24.40;99.90;;;;;;5036639;28;20419;-69
2023/08/15 10:00:16;;;;;;;11.80;10.40;;;24.50;99.90;;;;;;5035690;28;20454;-70
2023/08/15 10:02:48;;;;;;;10.60;8.90;;;24.50;99.90;;;;;;5036367;28;20426;-70
2023/08/15 10:05:21;;;;;;;9.13;8.00;;;24.60;99.90;;;;;;5017808;28;20453;-69
2023/08/15 10:07:52;;;;;;;10.50;8.90;;;24.70;99.90;;;;;;5036201;28;20898;-70
2023/08/15 10:10:22;;;;;;;8.13;7.33;;;24.70;99.90;;;;;;5034473;28;20435;-70
2023/08/15 10:12:51;;;;;;;7.30;6.60;;;24.80;99.90;;;;;;5035737;28;20431;-70
2023/08/15 10:15:21;;;;;;;7.40;6.73;;;24.80;99.90;;;;;;5036121;28;20470;-71
2023/08/15 10:17:50;;;;;;;11.87;6.40;;;24.80;99.90;;;;;;5035543;28;20442;-70
2023/08/15 10:20:20;;;;;;;7.10;6.37;;;24.80;99.90;;;;;;5035313;28;20445;-70
2023/08/15 10:22:50;;;;;;;6.77;5.40;;;24.90;99.90;;;;;;5035916;28;20420;-69
2023/08/15 10:25:35;;;;;;;7.20;4.70;;;24.90;99.90;;;;;;5035667;28;20423;-70
2023/08/15 10:28:10;;;;;;;5.77;4.70;;;24.90;99.90;;;;;;5015488;28;20517;-70
2023/08/15 10:30:41;;;;;;;7.87;4.90;;;24.90;99.90;;;;;;5017629;28;20430;-70
2023/08/15 10:33:20;;;;;;;7.87;4.07;;;25.00;99.90;;;;;;5035848;28;20882;-70
2023/08/15 10:35:51;;;;;;;7.93;4.23;;;25.00;99.90;;;;;;5034947;28;20469;-70
2023/08/15 10:38:21;;;;;;;10.43;4.80;;;25.10;99.90;;;;;;5034800;28;20427;-70
2023/08/15 10:40:52;;;;;;;5.53;3.47;;;25.20;99.90;;;;;;5034361;28;20427;-70
2023/08/15 10:43:25;;;;;;;7.40;4.10;;;25.20;99.90;;;;;;5033570;28;20489;-70
2023/08/15 10:45:57;;;;;;;4.20;3.60;;;25.30;99.90;;;;;;5034363;28;20415;-70
2023/08/15 10:48:47;;;;;;;5.20;3.90;;;25.30;99.90;;;;;;5034099;28;20934;-70
2023/08/15 10:51:32;;;;;;;5.83;3.90;;;25.30;99.90;;;;;;5016171;28;20455;-70
2023/08/15 10:54:02;;;;;;;7.20;3.87;;;25.40;99.90;;;;;;5016297;28;20482;-71
2023/08/15 10:56:32;;;;;;;5.00;3.17;;;25.40;99.90;;;;;;5034059;28;21042;-70
2023/08/15 10:59:06;;;;;;;4.40;3.40;;;25.50;99.90;;;;;;5034126;28;20481;-70
2023/08/15 11:01:36;;;;;;;3.73;2.80;;;25.50;99.90;;;;;;5034462;28;20809;-70
2023/08/15 11:04:08;;;;;;;4.73;3.47;;;25.60;99.90;;;;;;5034190;28;20856;-70
2023/08/15 11:06:41;;;;;;;4.70;3.57;;;25.60;99.90;;;;;;5034075;28;20442;-70
2023/08/15 11:09:10;;;;;;;5.20;3.20;;;25.60;99.90;;;;;;5016203;28;20454;-70
2023/08/15 11:11:39;;;;;;;3.93;2.70;;;25.60;99.90;;;;;;5033687;28;20450;-70
2023/08/15 11:14:17;;;;;;;5.63;3.30;;;25.70;99.90;;;;;;5016115;28;20494;-70
2023/08/15 11:16:48;;;;;;;4.57;3.27;;;25.70;99.90;;;;;;5015880;28;20473;-70
2023/08/15 11:19:18;;;;;;;3.60;2.70;;;25.70;99.90;;;;;;5033535;28;20447;-70
2023/08/15 11:21:48;;;;;;;4.70;2.97;;;25.80;99.90;;;;;;5034300;28;20438;-70
2023/08/15 11:24:16;;;;;;;4.50;3.20;;;25.90;99.90;;;;;;5033340;28;20458;-70
2023/08/15 11:26:45;;;;;;;4.83;3.80;;;25.90;99.90;;;;;;5033586;28;20530;-70
2023/08/15 11:29:13;;;;;;;4.20;2.70;;;26.00;99.90;;;;;;5033443;28;20939;-70
2023/08/15 11:31:43;;;;;;;4.37;2.53;;;26.00;99.90;;;;;;5015829;28;20479;-70
2023/08/15 11:34:12;;;;;;;3.87;3.00;;;26.00;99.90;;;;;;5015921;28;20470;-70
2023/08/15 11:36:40;;;;;;;4.50;2.90;;;26.00;99.90;;;;;;5033615;28;20472;-70
2023/08/15 11:39:12;;;;;;;4.20;2.60;;;26.10;99.90;;;;;;5033385;28;20526;-70
2023/08/15 11:41:40;;;;;;;5.37;3.10;;;26.00;99.90;;;;;;5015691;28;20549;-70
2023/08/15 11:44:09;;;;;;;2.70;2.30;;;26.00;99.90;;;;;;5033300;28;20481;-70
2023/08/15 11:46:37;;;;;;;5.20;2.70;;;26.10;99.90;;;;;;5033458;28;20431;-70
2023/08/15 11:49:24;;;;;;;3.50;2.43;;;26.00;99.90;;;;;;5033608;28;20461;-70
2023/08/15 11:51:52;;;;;;;5.60;2.80;;;25.90;99.90;;;;;;5033415;28;20438;-70
2023/08/15 11:54:27;;;;;;;5.77;2.77;;;25.90;99.90;;;;;;5034838;28;20988;-70
2023/08/15 11:56:55;;;;;;;4.43;3.00;;;25.90;99.90;;;;;;5037684;28;20464;-70
2023/08/15 11:59:24;;;;;;;3.40;2.50;;;26.00;99.90;;;;;;5019399;28;20496;-70
2023/08/15 12:01:52;;;;;;;4.90;2.50;;;26.00;99.90;;;;;;5037136;28;20450;-70
2023/08/15 12:04:20;;;;;;;4.50;2.37;;;26.10;99.90;;;;;;5037007;28;20454;-70
2023/08/15 12:06:50;;;;;;;3.20;2.20;;;26.20;99.90;;;;;;5019578;28;20473;-70
2023/08/15 12:09:19;;;;;;;3.90;2.20;;;26.20;99.90;;;;;;5037069;28;20477;-70
2023/08/15 12:11:47;;;;;;;3.40;2.33;;;26.30;99.90;;;;;;5037570;28;20435;-70
2023/08/15 12:14:19;;;;;;;4.40;2.30;;;26.30;99.90;;;;;;5037409;28;20959;-70
2023/08/15 12:16:47;;;;;;;3.93;2.50;;;26.30;99.90;;;;;;5037195;28;20458;-70
2023/08/15 12:19:15;;;;;;;3.43;2.30;;;26.30;99.90;;;;;;5037088;28;20435;-70
2023/08/15 12:21:52;;;;;;;3.50;2.47;;;26.20;99.90;;;;;;5037024;28;20419;-70
2023/08/15 12:24:20;;;;;;;3.00;1.93;;;26.20;99.90;;;;;;5036654;28;20542;-70
2023/08/15 12:26:48;;;;;;;3.27;2.07;;;26.20;99.90;;;;;;5019293;28;20471;-70
2023/08/15 12:29:16;;;;;;;3.80;1.97;;;26.20;99.90;;;;;;5036638;28;20435;-70
2023/08/15 12:31:45;;;;;;;5.20;2.50;;;26.30;99.90;;;;;;5018841;28;20508;-70
2023/08/15 12:34:14;;;;;;;3.03;1.97;;;26.40;99.90;;;;;;5036753;28;20505;-71
2023/08/15 12:36:42;;;;;;;4.43;3.30;;;26.50;99.90;;;;;;5036682;28;20577;-71
2023/08/15 12:39:12;;;;;;;3.07;2.10;;;26.60;99.90;;;;;;5037065;28;20538;-71
2023/08/15 12:41:40;;;;;;;4.83;1.80;;;26.70;99.90;;;;;;5036792;28;20442;-71
2023/08/15 12:44:08;;;;;;;4.60;2.40;;;26.80;99.90;;;;;;5036770;28;20971;-71
2023/08/15 12:46:36;;;;;;;3.00;1.97;;;26.90;99.90;;;;;;5036332;28;20443;-70
2023/08/15 12:49:05;;;;;;;3.10;1.77;;;27.00;99.90;;;;;;5036594;28;20470;-71
2023/08/15 12:51:33;;;;;;;3.10;2.20;;;27.00;99.90;;;;;;5018763;28;20456;-71